createdAt,value
2019-02-12T00:00:25.187Z,62.18
2019-02-12T00:02:54.780Z,68.66
2019-02-12T00:05:24.395Z,75.43
2019-02-12T00:07:54.036Z,80.28
2019-02-12T00:10:23.682Z,84.58
2019-02-12T00:12:53.411Z,87.40
2019-02-12T00:15:23.174Z,90.56
2019-02-12T00:17:52.873Z,93.71
2019-02-12T00:20:22.535Z,95.90
2019-02-12T00:22:52.124Z,98.17
2019-02-12T00:25:21.844Z,99.79
2019-02-12T00:27:51.647Z,100.00
2019-02-12T00:30:21.400Z,100.00
2019-02-12T00:32:51.096Z,100.00
2019-02-12T00:35:20.688Z,100.00
2019-02-12T00:37:50.366Z,100.00
2019-02-12T00:40:19.907Z,100.00
2019-02-12T00:42:49.559Z,100.00
2019-02-12T00:45:19.221Z,100.00
2019-02-12T00:47:48.925Z,100.00
2019-02-12T00:50:18.633Z,100.00
2019-02-12T00:52:48.330Z,100.00
2019-02-12T00:55:17.958Z,100.00
2019-02-12T00:57:47.478Z,100.00
2019-02-12T01:00:17.164Z,100.00
2019-02-12T01:02:46.872Z,100.00
2019-02-12T01:05:16.435Z,100.00
2019-02-12T01:07:46.096Z,100.00
2019-02-12T01:10:15.736Z,100.00
2019-02-12T01:12:45.271Z,100.00
2019-02-12T01:15:14.923Z,100.00
2019-02-12T01:17:44.625Z,100.00
2019-02-12T01:20:14.343Z,100.00
2019-02-12T01:22:43.888Z,100.00
2019-02-12T01:25:13.439Z,100.00
2019-02-12T01:27:43.037Z,100.00
2019-02-12T01:30:16.787Z,100.00
2019-02-12T01:32:46.577Z,100.00
2019-02-12T01:35:16.279Z,100.00
2019-02-12T01:37:45.990Z,100.00
2019-02-12T01:40:15.735Z,100.00
2019-02-12T01:42:45.372Z,100.00
2019-02-12T01:45:14.973Z,100.00
2019-02-12T01:47:44.619Z,100.00
2019-02-12T01:50:14.952Z,100.00
2019-02-12T01:52:44.588Z,100.00
2019-02-12T01:55:14.257Z,100.00
2019-02-12T01:57:44.009Z,100.00
2019-02-12T02:00:14.954Z,100.00
2019-02-12T02:02:44.836Z,100.00
2019-02-12T02:05:14.398Z,100.00
2019-02-12T02:07:43.985Z,100.00
2019-02-12T02:10:15.960Z,100.00
2019-02-12T02:12:45.567Z,100.00
2019-02-12T02:15:15.370Z,100.00
2019-02-12T02:17:45.046Z,100.00
2019-02-12T02:20:15.029Z,100.00
2019-02-12T02:22:44.654Z,100.00
2019-02-12T02:25:14.622Z,100.00
2019-02-12T02:27:44.164Z,100.00
2019-02-12T02:30:14.769Z,100.00
2019-02-12T02:32:44.312Z,100.00
2019-02-12T02:35:13.856Z,100.00
2019-02-12T02:37:43.545Z,100.00
2019-02-12T02:40:13.122Z,100.00
2019-02-12T02:42:42.665Z,100.00
2019-02-12T02:45:12.608Z,100.00
2019-02-12T02:47:42.224Z,100.00
2019-02-12T02:50:11.821Z,100.00
2019-02-12T02:52:41.528Z,100.00
2019-02-12T02:55:11.189Z,100.00
2019-02-12T02:57:40.742Z,100.00
2019-02-12T03:00:10.685Z,100.00
2019-02-12T03:02:40.255Z,100.00
2019-02-12T03:05:10.784Z,100.00
2019-02-12T03:07:40.359Z,100.00
2019-02-12T03:10:10.108Z,100.00
2019-02-12T03:12:39.674Z,100.00
2019-02-12T03:15:10.179Z,100.00
2019-02-12T03:17:39.744Z,100.00
2019-02-12T03:20:10.817Z,100.00
2019-02-12T03:22:40.378Z,100.00
2019-02-12T03:25:10.241Z,100.00
2019-02-12T03:27:39.820Z,100.00
2019-02-12T03:30:10.393Z,100.00
2019-02-12T03:32:40.056Z,100.00
2019-02-12T03:35:09.847Z,100.00
2019-02-12T03:37:39.423Z,100.00
2019-02-12T03:40:10.063Z,100.00
2019-02-12T03:42:39.643Z,100.00
2019-02-12T03:45:10.427Z,100.00
2019-02-12T03:47:40.024Z,100.00
2019-02-12T03:50:10.238Z,100.00
2019-02-12T03:52:39.796Z,100.00
2019-02-12T03:55:10.395Z,100.00
2019-02-12T03:57:40.117Z,100.00
2019-02-12T04:00:12.189Z,100.00
2019-02-12T04:03:04.543Z,100.00
2019-02-12T04:05:34.224Z,100.00
2019-02-12T04:08:04.129Z,100.00
2019-02-12T04:10:36.525Z,100.00
2019-02-12T04:13:06.071Z,100.00
2019-02-12T04:15:35.837Z,100.00
2019-02-12T04:18:05.431Z,100.00
2019-02-12T04:20:35.162Z,100.00
2019-02-12T04:23:04.842Z,100.00
2019-02-12T04:25:34.401Z,100.00
2019-02-12T04:28:03.966Z,100.00
2019-02-12T04:30:33.560Z,100.00
2019-02-12T04:33:03.134Z,100.00
2019-02-12T04:35:32.679Z,100.00
2019-02-12T04:38:02.313Z,100.00
2019-02-12T04:40:31.874Z,100.00
2019-02-12T04:43:01.447Z,100.00
2019-02-12T04:45:31.000Z,100.00
2019-02-12T04:48:00.615Z,100.00
2019-02-12T04:50:30.175Z,100.00
2019-02-12T04:52:59.739Z,100.00
2019-02-12T04:55:29.324Z,100.00
2019-02-12T04:57:59.010Z,100.00
2019-02-12T05:00:28.533Z,100.00
2019-02-12T05:02:58.083Z,100.00
2019-02-12T05:05:27.647Z,100.00
2019-02-12T05:07:57.302Z,100.00
2019-02-12T05:10:28.234Z,100.00
2019-02-12T05:12:57.788Z,100.00
2019-02-12T05:15:27.350Z,100.00
2019-02-12T05:17:57.055Z,100.00
2019-02-12T05:20:26.671Z,100.00
2019-02-12T05:22:56.215Z,100.00
2019-02-12T05:25:25.936Z,100.00
2019-02-12T05:27:55.499Z,100.00
2019-02-12T05:30:25.133Z,100.00
2019-02-12T05:32:54.678Z,100.00
2019-02-12T05:35:24.480Z,100.00
2019-02-12T05:37:54.032Z,100.00
2019-02-12T05:40:23.630Z,100.00
2019-02-12T05:42:53.265Z,100.00
2019-02-12T05:45:22.826Z,100.00
2019-02-12T05:47:52.476Z,100.00
2019-02-12T05:50:22.021Z,100.00
2019-02-12T05:52:54.353Z,100.00
2019-02-12T05:55:22.874Z,100.00
2019-02-12T05:57:52.484Z,100.00
2019-02-12T06:00:24.302Z,100.00
2019-02-12T06:02:53.877Z,100.00
2019-02-12T06:05:27.699Z,100.00
2019-02-12T06:07:57.294Z,100.00
2019-02-12T06:10:26.877Z,100.00
2019-02-12T06:12:56.602Z,100.00
2019-02-12T06:15:26.209Z,100.00
2019-02-12T06:17:55.752Z,100.00
2019-02-12T06:20:25.338Z,100.00
2019-02-12T06:23:03.410Z,100.00
2019-02-12T06:25:26.161Z,100.00
2019-02-12T06:27:55.700Z,100.00
2019-02-12T06:30:25.252Z,100.00
2019-02-12T06:32:54.814Z,100.00
2019-02-12T06:35:24.443Z,100.00
2019-02-12T06:37:54.925Z,100.00
2019-02-12T06:40:24.471Z,100.00
2019-02-12T06:42:54.032Z,100.00
2019-02-12T06:45:23.623Z,100.00
2019-02-12T06:47:53.148Z,100.00
2019-02-12T06:50:22.672Z,100.00
2019-02-12T06:52:52.280Z,100.00
2019-02-12T06:55:21.796Z,100.00
2019-02-12T06:57:51.345Z,99.37
2019-02-12T07:00:20.890Z,98.64
2019-02-12T07:03:18.270Z,96.27
2019-02-12T07:06:01.321Z,94.77
2019-02-12T07:08:51.534Z,94.82
2019-02-12T07:11:58.887Z,92.31
2019-02-12T07:14:50.210Z,89.78
2019-02-12T07:17:46.513Z,90.18
2019-02-12T07:20:41.080Z,89.88
2019-02-12T07:23:39.836Z,86.92
2019-02-12T07:26:35.728Z,84.40
2019-02-12T07:29:41.361Z,82.08
2019-02-12T07:32:30.047Z,82.31
2019-02-12T07:35:49.815Z,83.73
2019-02-12T07:38:55.330Z,84.15
2019-02-12T07:42:14.651Z,85.34
2019-02-12T07:45:00.001Z,85.11
2019-02-12T07:47:54.718Z,83.30
2019-02-12T07:50:46.194Z,83.76
2019-02-12T07:53:33.672Z,82.60
2019-02-12T07:56:30.173Z,79.26
2019-02-12T07:59:27.088Z,80.99
2019-02-12T08:02:17.342Z,77.62
2019-02-12T08:05:42.933Z,76.62
2019-02-12T08:08:58.606Z,76.99
2019-02-12T08:12:01.855Z,78.09
2019-02-12T08:15:01.454Z,76.45
2019-02-12T08:18:05.299Z,76.06
2019-02-12T08:21:12.338Z,75.57
2019-02-12T08:24:13.369Z,74.13
2019-02-12T08:27:15.174Z,75.70
2019-02-12T08:30:12.710Z,75.12
2019-02-12T08:33:15.107Z,70.64
2019-02-12T08:36:26.911Z,71.00
2019-02-12T08:39:24.620Z,72.21
2019-02-12T08:42:37.744Z,72.18
2019-02-12T08:45:30.318Z,71.11
2019-02-12T08:48:40.482Z,71.44
2019-02-12T08:51:58.576Z,71.18
2019-02-12T08:55:00.393Z,72.93
2019-02-12T08:57:57.574Z,71.51
2019-02-12T09:01:14.237Z,71.91
2019-02-12T09:04:36.606Z,72.07
2019-02-12T09:07:46.936Z,69.16
2019-02-12T09:11:09.231Z,70.86
2019-02-12T09:13:43.305Z,70.79
2019-02-12T09:17:04.642Z,70.54
2019-02-12T09:19:55.668Z,72.12
2019-02-12T09:23:02.052Z,72.29
2019-02-12T09:26:03.272Z,73.51
2019-02-12T09:28:58.793Z,72.17
2019-02-12T09:32:12.086Z,70.98
2019-02-12T09:35:14.667Z,69.75
2019-02-12T09:38:31.013Z,69.46
2019-02-12T09:41:11.164Z,70.72
2019-02-12T09:44:23.353Z,70.70
2019-02-12T09:47:44.679Z,71.35
2019-02-12T09:50:39.328Z,70.93
2019-02-12T09:54:14.131Z,70.29
2019-02-12T09:57:07.069Z,69.70
2019-02-12T10:00:32.619Z,69.93
2019-02-12T10:03:25.217Z,70.23
2019-02-12T10:06:24.413Z,71.58
2019-02-12T10:09:29.389Z,70.57
2019-02-12T10:12:32.762Z,71.62
2019-02-12T10:15:45.614Z,71.25
2019-02-12T10:18:54.537Z,71.06
2019-02-12T10:22:19.073Z,71.06
2019-02-12T10:24:59.221Z,72.80
2019-02-12T10:28:20.441Z,71.76
2019-02-12T10:31:07.166Z,71.89
2019-02-12T10:33:36.838Z,71.38
2019-02-12T10:36:06.421Z,71.34
2019-02-12T10:38:35.980Z,72.48
2019-02-12T10:41:05.593Z,73.37
2019-02-12T10:43:35.129Z,72.97
2019-02-12T10:46:04.737Z,72.29
2019-02-12T10:48:34.388Z,72.78
2019-02-12T10:51:04.033Z,72.89
2019-02-12T10:53:33.654Z,72.39
2019-02-12T10:56:04.640Z,73.30
2019-02-12T10:58:34.406Z,73.11
2019-02-12T11:01:04.099Z,72.83
2019-02-12T11:03:34.264Z,73.80
2019-02-12T11:06:03.930Z,73.43
2019-02-12T11:08:33.537Z,73.77
2019-02-12T11:11:03.147Z,75.13
2019-02-12T11:13:32.674Z,74.24
2019-02-12T11:16:02.204Z,74.79
2019-02-12T11:18:31.806Z,76.02
2019-02-12T11:21:01.342Z,75.87
2019-02-12T11:23:30.932Z,76.47
2019-02-12T11:26:00.468Z,76.68
2019-02-12T11:28:30.045Z,77.38
2019-02-12T11:30:59.635Z,77.32
2019-02-12T11:33:29.176Z,77.43
2019-02-12T11:35:58.828Z,78.86
2019-02-12T11:38:28.463Z,79.26
2019-02-12T11:40:58.064Z,78.80
2019-02-12T11:43:27.702Z,79.05
2019-02-12T11:45:57.248Z,79.58
2019-02-12T11:48:26.837Z,79.58
2019-02-12T11:50:56.448Z,80.26
2019-02-12T11:53:26.090Z,80.12
2019-02-12T11:55:55.604Z,80.53
2019-02-12T11:58:25.160Z,81.53
2019-02-12T12:01:05.979Z,81.98
2019-02-12T12:03:35.510Z,82.38
2019-02-12T12:06:05.046Z,82.50
2019-02-12T12:08:34.670Z,82.63
2019-02-12T12:11:04.312Z,82.48
2019-02-12T12:13:34.007Z,83.25
2019-02-12T12:16:03.548Z,83.69
2019-02-12T12:18:33.217Z,84.05
2019-02-12T12:21:02.795Z,84.52
2019-02-12T12:23:32.330Z,85.06
2019-02-12T12:26:01.908Z,84.44
2019-02-12T12:28:31.519Z,84.60
2019-02-12T12:31:01.067Z,84.69
2019-02-12T12:33:30.772Z,83.33
2019-02-12T12:36:00.399Z,83.28
2019-02-12T12:38:29.955Z,82.45
2019-02-12T12:40:59.586Z,82.48
2019-02-12T12:43:29.863Z,82.67
2019-02-12T12:45:59.569Z,82.08
2019-02-12T12:48:29.157Z,81.77
2019-02-12T12:50:58.785Z,81.04
2019-02-12T12:53:28.336Z,80.71
2019-02-12T12:55:57.953Z,80.21
2019-02-12T12:58:27.637Z,80.50
2019-02-12T13:00:57.241Z,80.22
2019-02-12T13:03:26.790Z,80.58
2019-02-12T13:05:56.469Z,80.69
2019-02-12T13:08:26.186Z,81.97
2019-02-12T13:10:55.920Z,82.30
2019-02-12T13:13:25.616Z,82.30
2019-02-12T13:15:55.165Z,83.29
2019-02-12T13:18:24.842Z,83.30
2019-02-12T13:20:54.525Z,83.81
2019-02-12T13:23:24.092Z,82.78
2019-02-12T13:25:53.726Z,83.08
2019-02-12T13:28:23.537Z,82.97
2019-02-12T13:30:53.110Z,81.66
2019-02-12T13:33:22.758Z,81.44
2019-02-12T13:35:52.387Z,80.58
2019-02-12T13:38:21.943Z,80.48
2019-02-12T13:40:51.545Z,81.00
2019-02-12T13:43:21.151Z,81.05
2019-02-12T13:45:50.736Z,80.58
2019-02-12T13:48:20.409Z,80.96
2019-02-12T13:50:49.963Z,80.80
2019-02-12T13:53:19.630Z,81.09
2019-02-12T13:55:49.246Z,81.13
2019-02-12T13:58:18.909Z,81.93
2019-02-12T14:00:48.513Z,81.52
2019-02-12T14:03:22.438Z,81.44
2019-02-12T14:05:49.567Z,81.58
2019-02-12T14:08:19.112Z,82.29
2019-02-12T14:10:48.878Z,81.70
2019-02-12T14:13:18.425Z,81.23
2019-02-12T14:15:48.135Z,81.47
2019-02-12T14:18:17.749Z,81.55
2019-02-12T14:20:47.305Z,81.73
2019-02-12T14:23:16.936Z,81.53
2019-02-12T14:25:46.635Z,81.68
2019-02-12T14:28:16.371Z,83.44
2019-02-12T14:30:45.922Z,84.58
2019-02-12T14:33:15.593Z,84.65
2019-02-12T14:35:45.460Z,84.78
2019-02-12T14:38:15.398Z,85.44
2019-02-12T14:40:45.112Z,84.89
2019-02-12T14:43:15.081Z,84.12
2019-02-12T14:45:44.767Z,84.48
2019-02-12T14:48:14.430Z,84.55
2019-02-12T14:50:44.040Z,85.98
2019-02-12T14:53:13.664Z,85.23
2019-02-12T14:55:43.229Z,86.04
2019-02-12T14:58:12.889Z,86.25
2019-02-12T15:00:42.644Z,86.89
2019-02-12T15:03:12.350Z,87.48
2019-02-12T15:05:41.927Z,88.43
2019-02-12T15:08:11.659Z,88.60
2019-02-12T15:10:41.234Z,88.93
2019-02-12T15:13:10.858Z,88.72
2019-02-12T15:15:40.462Z,89.94
2019-02-12T15:18:10.064Z,91.79
2019-02-12T15:20:39.737Z,93.10
2019-02-12T15:23:09.308Z,94.14
2019-02-12T15:25:41.970Z,95.44
2019-02-12T15:28:10.239Z,96.09
2019-02-12T15:30:39.818Z,97.39
2019-02-12T15:33:09.491Z,98.42
2019-02-12T15:35:39.234Z,99.61
2019-02-12T15:38:08.881Z,100.00
2019-02-12T15:40:38.545Z,100.00
2019-02-12T15:43:08.285Z,100.00
2019-02-12T15:45:38.006Z,100.00
2019-02-12T15:48:07.678Z,100.00
2019-02-12T15:50:37.336Z,99.56
2019-02-12T15:53:07.162Z,99.53
2019-02-12T15:55:42.119Z,99.66
2019-02-12T15:58:08.160Z,99.33
2019-02-12T16:00:39.519Z,98.98
2019-02-12T16:03:09.261Z,100.00
2019-02-12T16:05:38.839Z,100.00
2019-02-12T16:08:09.297Z,100.00
2019-02-12T16:10:40.140Z,100.00
2019-02-12T16:13:11.567Z,100.00
2019-02-12T16:15:43.550Z,100.00
2019-02-12T16:18:13.374Z,100.00
2019-02-12T16:20:43.085Z,100.00
2019-02-12T16:23:12.669Z,100.00
2019-02-12T16:25:42.362Z,100.00
2019-02-12T16:28:12.113Z,100.00
2019-02-12T16:30:41.733Z,100.00
2019-02-12T16:33:11.461Z,100.00
2019-02-12T16:35:41.037Z,100.00
2019-02-12T16:38:10.637Z,100.00
2019-02-12T16:40:40.217Z,100.00
2019-02-12T16:43:09.790Z,100.00
2019-02-12T16:45:46.815Z,100.00
2019-02-12T16:48:16.444Z,100.00
2019-02-12T16:50:46.702Z,100.00
2019-02-12T16:53:16.408Z,100.00
2019-02-12T16:55:46.162Z,100.00
2019-02-12T16:58:15.867Z,100.00
2019-02-12T17:00:45.547Z,99.94
2019-02-12T17:03:15.294Z,99.75
2019-02-12T17:05:44.927Z,100.00
2019-02-12T17:08:14.519Z,99.41
2019-02-12T17:10:44.105Z,99.43
2019-02-12T17:13:13.729Z,99.72
2019-02-12T17:15:43.360Z,99.19
2019-02-12T17:18:12.943Z,98.10
2019-02-12T17:20:42.510Z,98.63
2019-02-12T17:23:12.192Z,98.06
2019-02-12T17:25:41.824Z,97.39
2019-02-12T17:28:11.486Z,97.36
2019-02-12T17:30:41.070Z,96.34
2019-02-12T17:33:10.691Z,96.40
2019-02-12T17:35:40.274Z,96.13
2019-02-12T17:38:09.897Z,95.81
2019-02-12T17:40:39.556Z,94.73
2019-02-12T17:43:09.136Z,95.36
2019-02-12T17:45:38.715Z,94.80
2019-02-12T17:48:08.462Z,94.90
2019-02-12T17:50:38.150Z,94.52
2019-02-12T17:53:08.386Z,94.65
2019-02-12T17:55:38.059Z,93.99
2019-02-12T17:58:07.828Z,94.29
2019-02-12T18:00:41.491Z,94.24
2019-02-12T18:03:11.184Z,93.98
2019-02-12T18:05:40.873Z,93.92
2019-02-12T18:08:10.552Z,94.23
2019-02-12T18:10:40.426Z,93.98
2019-02-12T18:13:10.190Z,93.58
2019-02-12T18:15:39.973Z,93.79
2019-02-12T18:18:09.622Z,93.47
2019-02-12T18:20:39.429Z,93.93
2019-02-12T18:23:09.025Z,94.28
2019-02-12T18:25:38.847Z,94.18
2019-02-12T18:28:08.499Z,94.42
2019-02-12T18:30:38.630Z,94.04
2019-02-12T18:33:08.391Z,94.23
2019-02-12T18:35:38.719Z,94.51
2019-02-12T18:38:08.295Z,94.46
2019-02-12T18:40:37.904Z,94.36
2019-02-12T18:43:07.795Z,94.67
2019-02-12T18:45:37.406Z,94.98
2019-02-12T18:48:07.003Z,94.83
2019-02-12T18:50:37.857Z,95.28
2019-02-12T18:53:07.553Z,95.34
2019-02-12T18:55:37.302Z,95.62
2019-02-12T18:58:07.236Z,96.48
2019-02-12T19:00:36.961Z,96.28
2019-02-12T19:03:06.480Z,96.79
2019-02-12T19:05:36.070Z,97.66
2019-02-12T19:08:05.647Z,97.78
2019-02-12T19:10:35.327Z,97.66
2019-02-12T19:13:06.257Z,97.27
2019-02-12T19:15:35.950Z,97.32
2019-02-12T19:18:09.286Z,97.64
2019-02-12T19:20:39.440Z,97.04
2019-02-12T19:23:09.341Z,98.28
2019-02-12T19:25:38.949Z,98.95
2019-02-12T19:28:08.858Z,97.67
2019-02-12T19:30:38.515Z,97.01
2019-02-12T19:33:08.271Z,97.83
2019-02-12T19:35:38.045Z,97.34
2019-02-12T19:38:08.000Z,97.59
2019-02-12T19:40:37.593Z,98.09
2019-02-12T19:43:07.278Z,98.61
2019-02-12T19:45:36.894Z,98.98
2019-02-12T19:48:06.595Z,100.00
2019-02-12T19:50:36.193Z,100.00
2019-02-12T19:53:05.779Z,100.00
2019-02-12T19:55:35.430Z,100.00
2019-02-12T19:58:05.402Z,100.00
2019-02-12T20:00:35.160Z,100.00
2019-02-12T20:03:05.668Z,100.00
2019-02-12T20:05:35.555Z,100.00
2019-02-12T20:08:07.509Z,100.00
2019-02-12T20:10:37.579Z,100.00
2019-02-12T20:13:07.311Z,100.00
2019-02-12T20:15:36.998Z,100.00
2019-02-12T20:18:06.853Z,100.00
2019-02-12T20:20:38.774Z,100.00
2019-02-12T20:23:08.786Z,100.00
2019-02-12T20:25:38.501Z,100.00
2019-02-12T20:28:08.110Z,100.00
2019-02-12T20:30:37.725Z,100.00
2019-02-12T20:33:07.395Z,100.00
2019-02-12T20:35:36.986Z,100.00
2019-02-12T20:38:06.644Z,100.00
2019-02-12T20:40:38.510Z,100.00
2019-02-12T20:43:09.109Z,100.00
2019-02-12T20:45:39.279Z,100.00
2019-02-12T20:48:08.984Z,100.00
2019-02-12T20:50:38.651Z,100.00
2019-02-12T20:53:08.679Z,100.00
2019-02-12T20:55:38.306Z,100.00
2019-02-12T20:58:07.999Z,100.00
2019-02-12T21:00:38.504Z,100.00
2019-02-12T21:03:08.639Z,100.00
2019-02-12T21:05:38.627Z,100.00
2019-02-12T21:08:09.000Z,100.00
2019-02-12T21:10:38.568Z,100.00
2019-02-12T21:13:08.341Z,100.00
2019-02-12T21:15:38.006Z,100.00
2019-02-12T21:18:07.762Z,100.00
2019-02-12T21:20:37.356Z,100.00
2019-02-12T21:23:06.921Z,100.00
2019-02-12T21:25:36.563Z,100.00
2019-02-12T21:28:06.144Z,100.00
2019-02-12T21:30:35.773Z,100.00
2019-02-12T21:33:05.508Z,100.00
2019-02-12T21:35:35.222Z,100.00
2019-02-12T21:38:06.508Z,100.00
2019-02-12T21:40:36.153Z,100.00
2019-02-12T21:43:05.704Z,100.00
2019-02-12T21:45:35.367Z,100.00
2019-02-12T21:48:04.931Z,100.00
2019-02-12T21:50:34.540Z,100.00
2019-02-12T21:53:04.131Z,100.00
2019-02-12T21:55:33.725Z,100.00
2019-02-12T21:58:03.303Z,100.00
2019-02-12T22:00:33.041Z,100.00
2019-02-12T22:03:02.727Z,100.00
2019-02-12T22:05:32.471Z,100.00
2019-02-12T22:08:01.975Z,100.00
2019-02-12T22:10:31.612Z,100.00
2019-02-12T22:13:01.180Z,100.00
2019-02-12T22:15:30.858Z,100.00
2019-02-12T22:18:00.504Z,100.00
2019-02-12T22:20:30.096Z,100.00
2019-02-12T22:22:59.630Z,100.00
2019-02-12T22:25:29.310Z,100.00
2019-02-12T22:27:58.889Z,100.00
2019-02-12T22:30:28.552Z,100.00
2019-02-12T22:32:58.220Z,100.00
2019-02-12T22:35:27.876Z,100.00
2019-02-12T22:37:57.430Z,100.00
2019-02-12T22:40:27.021Z,100.00
2019-02-12T22:42:56.671Z,100.00
2019-02-12T22:45:26.348Z,100.00
2019-02-12T22:47:55.910Z,100.00
2019-02-12T22:50:25.634Z,100.00
2019-02-12T22:52:55.328Z,100.00
2019-02-12T22:55:24.996Z,100.00
2019-02-12T22:57:54.565Z,100.00
2019-02-12T23:00:49.537Z,100.00
2019-02-12T23:03:19.119Z,100.00
2019-02-12T23:05:48.711Z,100.00
2019-02-12T23:08:18.275Z,100.00
2019-02-12T23:10:47.908Z,100.00
2019-02-12T23:13:17.495Z,100.00
2019-02-12T23:15:47.071Z,100.00
2019-02-12T23:18:16.651Z,100.00
2019-02-12T23:20:46.356Z,100.00
2019-02-12T23:23:15.927Z,100.00
2019-02-12T23:25:45.514Z,100.00
2019-02-12T23:28:15.085Z,100.00
2019-02-12T23:30:44.658Z,100.00
2019-02-12T23:33:14.233Z,100.00
2019-02-12T23:35:43.794Z,100.00
2019-02-12T23:38:13.506Z,100.00
2019-02-12T23:40:43.122Z,100.00
2019-02-12T23:43:12.673Z,100.00
2019-02-12T23:45:42.226Z,100.00
2019-02-12T23:48:11.801Z,100.00
2019-02-12T23:50:41.344Z,100.00
2019-02-12T23:53:10.905Z,100.00
2019-02-12T23:55:40.771Z,100.00
2019-02-12T23:58:14.037Z,100.00
